Eastlake, Colorado
Current Conditions -  °F | °C
As of 8:55 AM on Sunday 21 Dec 2014 (Local Time) from KBJC Reporting Station
Broken Clouds Broken Clouds  
Wind Chill:   Ceiling: 20000
Heat Index:   Visibility: 40mi
Dew Point: -8°   Wind: 16mph
Humidity: 32%   Direction: 270°W
Pressure: 29.66"   Gusts: 20mph
Location:  39.92°N, 104.96°W
Report Text: KBJC 211555Z 27014G17KT 40SM SCT080 BKN200 08/M08 A2966
Loading
Personal Weather Stations






























Interactive Weather Map New forecast layout! Learn more

10-Day Weather Forecast

Advertisements
Track Severe Weather on mobile